createdAt,value
2023-04-18T00:01:24.946Z,99790.53
2023-04-18T00:03:51.765Z,99789.16
2023-04-18T00:06:19.390Z,99786.53
2023-04-18T00:08:46.051Z,99784.84
2023-04-18T00:11:12.634Z,99791.53
2023-04-18T00:13:40.510Z,99791.72
2023-04-18T00:16:08.709Z,99793.78
2023-04-18T00:18:37.067Z,99792.41
2023-04-18T00:21:04.533Z,99789.16
2023-04-18T00:23:31.185Z,99791.34
2023-04-18T00:25:57.872Z,99784.03
2023-04-18T00:28:24.746Z,99787.59
2023-04-18T00:30:51.667Z,99783.38
2023-04-18T00:33:18.618Z,99777.41
2023-04-18T00:35:45.284Z,99782.66
2023-04-18T00:38:11.854Z,99774.69
2023-04-18T00:40:38.899Z,99780.88
2023-04-18T00:43:08.030Z,99778.31
2023-04-18T00:45:34.924Z,99773.84
2023-04-18T00:48:02.046Z,99773.84
2023-04-18T00:50:28.928Z,99776.28
2023-04-18T00:52:56.619Z,99771.22
2023-04-18T00:55:24.691Z,99769.56
2023-04-18T00:57:52.160Z,99775.88
2023-04-18T01:00:19.100Z,99779.44
2023-04-18T01:02:47.920Z,99773.66
2023-04-18T01:05:14.648Z,99770.44
2023-04-18T01:07:41.799Z,99778.25
2023-04-18T01:10:10.348Z,99773.66
2023-04-18T01:12:37.766Z,99769.16
2023-04-18T01:15:07.817Z,99760.69
2023-04-18T01:17:38.526Z,99766.53
2023-04-18T01:20:06.542Z,99761.78
2023-04-18T01:22:33.818Z,99765.88
2023-04-18T01:25:00.673Z,99758.97
2023-04-18T01:27:27.395Z,99763.63
2023-04-18T01:29:54.048Z,99760.22
2023-04-18T01:32:21.599Z,99767.38
2023-04-18T01:34:48.248Z,99756.66
2023-04-18T01:37:14.877Z,99756.66
2023-04-18T01:39:41.510Z,99762.09
2023-04-18T01:42:08.186Z,99758.03
2023-04-18T01:44:34.781Z,99758.03
2023-04-18T01:47:01.588Z,99762.19
2023-04-18T01:49:28.314Z,99751.16
2023-04-18T01:51:54.926Z,99749.69
2023-04-18T01:54:21.609Z,99748.50
2023-04-18T01:56:48.326Z,99749.53
2023-04-18T01:59:15.093Z,99744.53
2023-04-18T02:01:41.767Z,99743.50
2023-04-18T02:04:08.382Z,99741.78
2023-04-18T02:06:34.960Z,99752.78
2023-04-18T02:09:01.736Z,99736.53
2023-04-18T02:11:28.443Z,99740.72
2023-04-18T02:13:55.236Z,99739.88
2023-04-18T02:16:21.881Z,99742.38
2023-04-18T02:18:49.718Z,99739.09
2023-04-18T02:21:16.310Z,99733.91
2023-04-18T02:23:43.009Z,99732.56
2023-04-18T02:26:09.625Z,99738.50
2023-04-18T02:28:39.212Z,99730.84
2023-04-18T02:31:06.421Z,99732.03
2023-04-18T02:33:33.293Z,99735.44
2023-04-18T02:35:59.975Z,99744.09
2023-04-18T02:38:26.615Z,99742.06
2023-04-18T02:40:53.209Z,99738.69
2023-04-18T02:43:19.840Z,99741.38
2023-04-18T02:45:46.504Z,99738.50
2023-04-18T02:48:13.085Z,99741.25
2023-04-18T02:50:39.802Z,99739.53
2023-04-18T02:53:06.449Z,99739.34
2023-04-18T02:55:33.145Z,99741.06
2023-04-18T02:57:59.748Z,99754.47
2023-04-18T03:00:26.977Z,99751.06
2023-04-18T03:02:53.755Z,99758.81
2023-04-18T03:05:22.492Z,99751.78
2023-04-18T03:07:49.201Z,99759.75
2023-04-18T03:10:16.309Z,99759.16
2023-04-18T03:12:42.932Z,99754.97
2023-04-18T03:15:09.945Z,99760.22
2023-04-18T03:17:36.731Z,99750.72
2023-04-18T03:20:03.520Z,99754.81
2023-04-18T03:22:30.290Z,99760.06
2023-04-18T03:24:56.900Z,99754.97
2023-04-18T03:27:23.535Z,99756.84
2023-04-18T03:29:50.188Z,99754.81
2023-04-18T03:32:17.448Z,99753.25
2023-04-18T03:34:44.149Z,99761.00
2023-04-18T03:37:10.756Z,99756.13
2023-04-18T03:39:37.336Z,99764.75
2023-04-18T03:42:03.932Z,99765.97
2023-04-18T03:44:30.507Z,99756.63
2023-04-18T03:46:57.564Z,99761.78
2023-04-18T03:49:24.190Z,99764.41
2023-04-18T03:51:50.849Z,99766.09
2023-04-18T03:54:17.913Z,99764.59
2023-04-18T03:56:45.387Z,99766.28
2023-04-18T03:59:12.184Z,99766.28
2023-04-18T04:01:38.933Z,99771.56
2023-04-18T04:04:05.967Z,99770.63
2023-04-18T04:06:33.017Z,99770.69
2023-04-18T04:08:59.646Z,99770.69
2023-04-18T04:11:26.861Z,99770.44
2023-04-18T04:13:53.483Z,99770.63
2023-04-18T04:16:20.154Z,99775.91
2023-04-18T04:18:46.819Z,99773.41
2023-04-18T04:21:13.655Z,99771.88
2023-04-18T04:23:42.737Z,99776.97
2023-04-18T04:26:09.717Z,99774.41
2023-04-18T04:28:36.916Z,99784.13
2023-04-18T04:31:08.210Z,99780.69
2023-04-18T04:33:35.635Z,99785.03
2023-04-18T04:36:02.328Z,99785.78
2023-04-18T04:38:31.031Z,99790.84
2023-04-18T04:40:58.760Z,99794.78
2023-04-18T04:43:28.667Z,99790.13
2023-04-18T04:45:55.983Z,99791.06
2023-04-18T04:48:24.491Z,99795.38
2023-04-18T04:50:53.126Z,99797.34
2023-04-18T04:53:19.753Z,99791.22
2023-04-18T04:55:46.496Z,99798.19
2023-04-18T04:58:13.188Z,99803.28
2023-04-18T05:00:39.838Z,99793.69
2023-04-18T05:03:07.206Z,99797.34
2023-04-18T05:05:34.151Z,99802.34
2023-04-18T05:08:00.958Z,99795.31
2023-04-18T05:10:28.023Z,99811.09
2023-04-18T05:12:54.673Z,99803.75
2023-04-18T05:15:21.276Z,99801.25
2023-04-18T05:17:48.064Z,99812.28
2023-04-18T05:20:14.783Z,99806.44
2023-04-18T05:22:41.464Z,99801.91
2023-04-18T05:25:08.496Z,99811.66
2023-04-18T05:27:35.118Z,99814.91
2023-04-18T05:30:01.741Z,99812.03
2023-04-18T05:32:28.407Z,99810.84
2023-04-18T05:34:55.034Z,99813.75
2023-04-18T05:37:22.371Z,99811.19
2023-04-18T05:39:48.926Z,99809.19
2023-04-18T05:42:15.594Z,99810.09
2023-04-18T05:44:42.155Z,99809.19
2023-04-18T05:47:08.768Z,99814.25
2023-04-18T05:49:35.382Z,99810.72
2023-04-18T05:52:02.058Z,99813.09
2023-04-18T05:54:29.079Z,99812.41
2023-04-18T05:56:57.301Z,99821.06
2023-04-18T05:59:24.174Z,99819.81
2023-04-18T06:01:51.511Z,99819.06
2023-04-18T06:04:20.299Z,99828.50
2023-04-18T06:06:47.632Z,99827.81
2023-04-18T06:09:14.256Z,99831.13
2023-04-18T06:11:40.906Z,99825.19
2023-04-18T06:14:07.886Z,99835.38
2023-04-18T06:16:36.917Z,99828.22
2023-04-18T06:19:05.166Z,99838.78
2023-04-18T06:21:32.198Z,99840.47
2023-04-18T06:23:59.093Z,99842.72
2023-04-18T06:26:25.661Z,99846.44
2023-04-18T06:28:52.480Z,99848.91
2023-04-18T06:31:19.148Z,99850.63
2023-04-18T06:33:45.826Z,99854.34
2023-04-18T06:36:12.430Z,99860.22
2023-04-18T06:38:39.032Z,99862.78
2023-04-18T06:41:05.625Z,99856.66
2023-04-18T06:43:32.271Z,99863.38
2023-04-18T06:45:59.460Z,99867.53
2023-04-18T06:48:26.099Z,99865.69
2023-04-18T06:50:52.700Z,99857.94
2023-04-18T06:53:19.490Z,99867.16
2023-04-18T06:55:46.236Z,99870.97
2023-04-18T06:58:16.099Z,99869.06
2023-04-18T07:00:43.375Z,99868.16
2023-04-18T07:03:13.535Z,99873.94
2023-04-18T07:05:40.781Z,99877.59
2023-04-18T07:08:08.160Z,99875.72
2023-04-18T07:10:34.841Z,99883.72
2023-04-18T07:13:01.685Z,99881.84
2023-04-18T07:15:28.563Z,99873.69
2023-04-18T07:17:55.424Z,99878.47
2023-04-18T07:20:22.023Z,99884.22
2023-04-18T07:22:49.037Z,99880.13
2023-04-18T07:25:15.688Z,99882.38
2023-04-18T07:27:42.495Z,99891.81
2023-04-18T07:30:09.625Z,99890.34
2023-04-18T07:32:36.473Z,99888.34
2023-04-18T07:35:04.197Z,99889.00
2023-04-18T07:37:31.509Z,99891.91
2023-04-18T07:39:58.781Z,99893.44
2023-04-18T07:42:25.438Z,99894.81
2023-04-18T07:44:57.356Z,99897.69
2023-04-18T07:47:24.056Z,99894.28
2023-04-18T07:49:50.880Z,99897.94
2023-04-18T07:52:17.507Z,99903.72
2023-04-18T07:54:44.097Z,99894.28
2023-04-18T07:57:11.181Z,99915.22
2023-04-18T07:59:37.775Z,99914.19
2023-04-18T08:02:04.490Z,99914.44
2023-04-18T08:04:31.534Z,99917.94
2023-04-18T08:06:58.208Z,99911.88
2023-04-18T08:09:25.078Z,99918.34
2023-04-18T08:11:51.682Z,99915.56
2023-04-18T08:14:18.472Z,99918.47
2023-04-18T08:16:45.170Z,99919.25
2023-04-18T08:19:11.911Z,99921.69
2023-04-18T08:21:39.341Z,99917.97
2023-04-18T08:24:06.274Z,99914.41
2023-04-18T08:26:32.881Z,99907.09
2023-04-18T08:28:59.560Z,99911.94
2023-04-18T08:31:26.468Z,99916.75
2023-04-18T08:33:53.217Z,99921.88
2023-04-18T08:36:19.872Z,99912.84
2023-04-18T08:38:46.781Z,99902.97
2023-04-18T08:41:14.266Z,99919.31
2023-04-18T08:43:40.868Z,99917.06
2023-04-18T08:46:07.997Z,99924.41
2023-04-18T08:48:34.708Z,99922.03
2023-04-18T08:51:02.195Z,99921.00
2023-04-18T08:53:29.194Z,99927.25
2023-04-18T08:55:57.323Z,99925.78
2023-04-18T08:58:27.058Z,99929.44
2023-04-18T09:00:54.713Z,99934.66
2023-04-18T09:03:42.388Z,99931.75
2023-04-18T09:06:19.197Z,99925.28
2023-04-18T09:08:58.860Z,99926.03
2023-04-18T09:11:31.728Z,99926.13
2023-04-18T09:13:59.157Z,99929.19
2023-04-18T09:16:27.852Z,99923.06
2023-04-18T09:19:13.445Z,99924.41
2023-04-18T09:21:42.328Z,99926.09
2023-04-18T09:24:22.825Z,99931.81
2023-04-18T09:26:50.420Z,99927.41
2023-04-18T09:29:18.656Z,99930.69
2023-04-18T09:32:02.239Z,99928.34
2023-04-18T09:34:29.401Z,99931.56
2023-04-18T09:37:13.866Z,99933.34
2023-04-18T09:39:42.801Z,99927.97
2023-04-18T09:42:10.752Z,99936.31
2023-04-18T09:44:39.498Z,99929.91
2023-04-18T09:47:07.856Z,99942.09
2023-04-18T09:49:35.221Z,99934.97
2023-04-18T09:52:06.328Z,99936.84
2023-04-18T09:54:34.487Z,99937.50
2023-04-18T09:57:03.196Z,99932.72
2023-04-18T09:59:42.842Z,99940.47
2023-04-18T10:02:16.369Z,99935.94
2023-04-18T10:04:44.965Z,99944.47
2023-04-18T10:07:12.137Z,99935.34
2023-04-18T10:09:42.705Z,99940.78
2023-04-18T10:12:09.570Z,99939.91
2023-04-18T10:14:38.364Z,99941.50
2023-04-18T10:17:05.006Z,99933.97
2023-04-18T10:19:31.928Z,99940.25
2023-04-18T10:22:01.016Z,99937.31
2023-04-18T10:24:47.950Z,99944.13
2023-04-18T10:27:15.564Z,99936.78
2023-04-18T10:29:50.398Z,99929.84
2023-04-18T10:32:18.833Z,99936.94
2023-04-18T10:34:50.039Z,99931.81
2023-04-18T10:37:17.750Z,99935.72
2023-04-18T10:40:17.745Z,99937.97
2023-04-18T10:42:47.130Z,99934.75
2023-04-18T10:45:24.005Z,99934.09
2023-04-18T10:47:51.037Z,99930.22
2023-04-18T10:50:18.219Z,99939.75
2023-04-18T10:52:45.031Z,99935.13
2023-04-18T10:55:17.223Z,99936.81
2023-04-18T10:57:46.255Z,99929.00
2023-04-18T11:00:16.156Z,99934.06
2023-04-18T11:02:57.543Z,99938.25
2023-04-18T11:05:29.259Z,99930.19
2023-04-18T11:07:55.926Z,99934.00
2023-04-18T11:10:24.684Z,99928.31
2023-04-18T11:12:51.929Z,99932.69
2023-04-18T11:15:24.325Z,99927.88
2023-04-18T11:18:02.254Z,99927.97
2023-04-18T11:20:39.107Z,99921.50
2023-04-18T11:23:23.901Z,99927.47
2023-04-18T11:25:56.345Z,99924.94
2023-04-18T11:28:24.974Z,99915.91
2023-04-18T11:30:51.684Z,99921.44
2023-04-18T11:33:18.362Z,99918.88
2023-04-18T11:35:46.044Z,99920.00
2023-04-18T11:38:16.301Z,99909.91
2023-04-18T11:40:50.119Z,99912.63
2023-04-18T11:43:21.695Z,99909.78
2023-04-18T11:45:55.808Z,99917.16
2023-04-18T11:48:23.097Z,99914.97
2023-04-18T11:50:50.102Z,99913.75
2023-04-18T11:53:34.999Z,99924.31
2023-04-18T11:56:03.942Z,99922.44
2023-04-18T11:58:34.734Z,99928.69
2023-04-18T12:01:19.658Z,99926.78
2023-04-18T12:04:07.021Z,99926.28
2023-04-18T12:06:53.974Z,99924.47
2023-04-18T12:09:26.638Z,99923.75
2023-04-18T12:12:04.061Z,99931.78
2023-04-18T12:14:30.820Z,99931.63
2023-04-18T12:16:57.462Z,99923.44
2023-04-18T12:19:28.148Z,99919.16
2023-04-18T12:21:56.785Z,99922.56
2023-04-18T12:24:26.520Z,99918.31
2023-04-18T12:26:53.477Z,99906.59
2023-04-18T12:29:20.164Z,99910.28
2023-04-18T12:31:47.581Z,99916.03
2023-04-18T12:34:14.254Z,99910.13
2023-04-18T12:36:41.053Z,99900.13
2023-04-18T12:39:07.679Z,99896.97
2023-04-18T12:41:34.377Z,99896.50
2023-04-18T12:44:00.976Z,99900.19
2023-04-18T12:46:27.703Z,99898.91
2023-04-18T12:48:54.455Z,99898.34
2023-04-18T12:51:21.864Z,99888.91
2023-04-18T12:53:48.449Z,99888.06
2023-04-18T12:56:15.709Z,99890.09
2023-04-18T12:58:42.277Z,99889.31
2023-04-18T13:01:09.328Z,99892.91
2023-04-18T13:03:36.749Z,99891.63
2023-04-18T13:06:04.803Z,99887.00
2023-04-18T13:08:31.447Z,99893.16
2023-04-18T13:10:58.908Z,99889.13
2023-04-18T13:13:26.513Z,99898.34
2023-04-18T13:15:53.362Z,99896.28
2023-04-18T13:18:19.965Z,99892.97
2023-04-18T13:20:46.776Z,99890.00
2023-04-18T13:23:13.397Z,99886.97
2023-04-18T13:25:40.066Z,99883.91
2023-04-18T13:28:06.779Z,99882.50
2023-04-18T13:30:35.751Z,99884.09
2023-04-18T13:33:02.687Z,99880.25
2023-04-18T13:35:29.345Z,99874.78
2023-04-18T13:37:56.223Z,99881.78
2023-04-18T13:40:22.924Z,99877.31
2023-04-18T13:42:49.576Z,99879.44
2023-04-18T13:45:16.178Z,99882.41
2023-04-18T13:47:42.962Z,99874.28
2023-04-18T13:50:09.994Z,99877.09
2023-04-18T13:52:36.703Z,99875.00
2023-04-18T13:55:03.998Z,99870.66
2023-04-18T13:57:32.379Z,99883.72
2023-04-18T13:59:59.167Z,99874.34
2023-04-18T14:02:25.974Z,99874.34
2023-04-18T14:04:54.821Z,99870.50
2023-04-18T14:07:21.869Z,99871.81
2023-04-18T14:09:48.541Z,99881.13
2023-04-18T14:12:15.360Z,99871.38
2023-04-18T14:14:42.049Z,99873.50
2023-04-18T14:17:08.669Z,99872.28
2023-04-18T14:19:35.298Z,99875.78
2023-04-18T14:22:01.972Z,99874.47
2023-04-18T14:24:28.611Z,99869.38
2023-04-18T14:26:55.536Z,99875.81
2023-04-18T14:29:22.191Z,99875.31
2023-04-18T14:31:48.929Z,99875.97
2023-04-18T14:34:15.702Z,99868.53
2023-04-18T14:36:42.349Z,99869.56
2023-04-18T14:39:09.007Z,99863.53
2023-04-18T14:41:35.800Z,99867.59
2023-04-18T14:44:04.062Z,99869.84
2023-04-18T14:46:30.896Z,99870.56
2023-04-18T14:48:57.689Z,99864.81
2023-04-18T14:51:24.418Z,99861.13
2023-04-18T14:53:51.352Z,99871.06
2023-04-18T14:56:21.027Z,99870.13
2023-04-18T14:58:47.892Z,99866.06
2023-04-18T15:01:14.584Z,99858.63
2023-04-18T15:03:41.439Z,99867.09
2023-04-18T15:06:08.392Z,99868.81
2023-04-18T15:08:35.179Z,99858.34
2023-04-18T15:11:06.815Z,99866.63
2023-04-18T15:13:33.797Z,99862.16
2023-04-18T15:16:00.507Z,99866.53
2023-04-18T15:18:27.246Z,99870.78
2023-04-18T15:20:53.924Z,99870.22
2023-04-18T15:23:20.725Z,99865.06
2023-04-18T15:25:47.321Z,99867.72
2023-04-18T15:28:14.120Z,99875.56
2023-04-18T15:30:40.818Z,99871.66
2023-04-18T15:33:08.030Z,99871.84
2023-04-18T15:35:34.846Z,99871.84
2023-04-18T15:38:01.595Z,99874.59
2023-04-18T15:40:28.217Z,99875.00
2023-04-18T15:42:56.084Z,99871.72
2023-04-18T15:45:22.738Z,99870.44
2023-04-18T15:47:49.460Z,99872.88
2023-04-18T15:50:16.483Z,99872.22
2023-04-18T15:52:43.558Z,99870.94
2023-04-18T15:55:13.433Z,99878.59
2023-04-18T15:57:41.897Z,99878.16
2023-04-18T16:00:20.177Z,99872.00
2023-04-18T16:02:47.379Z,99872.94
2023-04-18T16:05:14.273Z,99876.13
2023-04-18T16:07:41.472Z,99873.06
2023-04-18T16:10:10.482Z,99869.44
2023-04-18T16:12:38.257Z,99871.25
2023-04-18T16:15:09.422Z,99874.31
2023-04-18T16:17:37.569Z,99873.56
2023-04-18T16:20:06.289Z,99880.03
2023-04-18T16:22:33.256Z,99883.63
2023-04-18T16:25:00.021Z,99880.13
2023-04-18T16:27:26.746Z,99885.09
2023-04-18T16:29:53.877Z,99885.31
2023-04-18T16:32:20.677Z,99886.28
2023-04-18T16:34:47.573Z,99880.88
2023-04-18T16:37:14.261Z,99882.13
2023-04-18T16:39:40.937Z,99880.97
2023-04-18T16:42:07.548Z,99884.78
2023-04-18T16:44:34.179Z,99882.13
2023-04-18T16:47:01.334Z,99879.16
2023-04-18T16:49:28.038Z,99884.97
2023-04-18T16:51:54.648Z,99889.53
2023-04-18T16:54:21.360Z,99892.25
2023-04-18T16:56:48.354Z,99889.06
2023-04-18T16:59:15.093Z,99893.44
2023-04-18T17:01:41.889Z,99890.91
2023-04-18T17:04:08.749Z,99896.28
2023-04-18T17:06:35.501Z,99898.75
2023-04-18T17:09:02.179Z,99900.00
2023-04-18T17:11:28.858Z,99899.88
2023-04-18T17:13:55.526Z,99894.78
2023-04-18T17:16:22.261Z,99903.09
2023-04-18T17:18:48.885Z,99898.75
2023-04-18T17:21:15.594Z,99902.13
2023-04-18T17:23:42.628Z,99911.69
2023-04-18T17:26:09.828Z,99906.88
2023-04-18T17:28:37.062Z,99909.34
2023-04-18T17:31:04.201Z,99908.56
2023-04-18T17:33:31.575Z,99905.63
2023-04-18T17:35:58.533Z,99907.53
2023-04-18T17:38:25.510Z,99908.56
2023-04-18T17:41:00.338Z,99908.66
2023-04-18T17:43:27.514Z,99906.31
2023-04-18T17:45:55.400Z,99904.63
2023-04-18T17:48:22.211Z,99914.34
2023-04-18T17:50:48.912Z,99910.78
2023-04-18T17:53:15.620Z,99918.06
2023-04-18T17:55:42.321Z,99922.69
2023-04-18T17:58:09.287Z,99921.84
2023-04-18T18:00:36.101Z,99919.78
2023-04-18T18:03:03.577Z,99916.78
2023-04-18T18:05:30.817Z,99923.94
2023-04-18T18:07:59.496Z,99924.53
2023-04-18T18:10:26.616Z,99914.72
2023-04-18T18:12:53.214Z,99913.59
2023-04-18T18:15:19.920Z,99919.84
2023-04-18T18:17:49.378Z,99919.38
2023-04-18T18:20:16.716Z,99921.16
2023-04-18T18:22:44.182Z,99924.75
2023-04-18T18:25:10.897Z,99921.34
2023-04-18T18:27:37.644Z,99920.78
2023-04-18T18:30:05.181Z,99919.84
2023-04-18T18:32:31.970Z,99916.34
2023-04-18T18:34:58.748Z,99933.34
2023-04-18T18:37:26.670Z,99930.78
2023-04-18T18:39:56.649Z,99935.31
2023-04-18T18:42:23.330Z,99930.69
2023-04-18T18:44:50.000Z,99932.66
2023-04-18T18:47:19.502Z,99930.00
2023-04-18T18:49:46.645Z,99939.66
2023-04-18T18:52:13.302Z,99940.41
2023-04-18T18:54:40.077Z,99938.78
2023-04-18T18:57:06.676Z,99948.50
2023-04-18T18:59:33.241Z,99941.34
2023-04-18T19:02:00.086Z,99941.34
2023-04-18T19:04:26.994Z,99942.84
2023-04-18T19:06:53.945Z,99949.75
2023-04-18T19:09:20.717Z,99950.72
2023-04-18T19:11:47.449Z,99942.13
2023-04-18T19:14:14.066Z,99958.91
2023-04-18T19:16:41.006Z,99951.56
2023-04-18T19:19:07.650Z,99949.75
2023-04-18T19:21:34.279Z,99940.97
2023-04-18T19:24:00.928Z,99953.16
2023-04-18T19:26:27.590Z,99953.06
2023-04-18T19:28:54.588Z,99953.44
2023-04-18T19:31:21.321Z,99952.31
2023-04-18T19:33:48.096Z,99949.00
2023-04-18T19:36:14.847Z,99953.50
2023-04-18T19:38:41.707Z,99957.69
2023-04-18T19:41:08.412Z,99961.19
2023-04-18T19:43:35.050Z,99955.91
2023-04-18T19:46:01.709Z,99950.50
2023-04-18T19:48:28.356Z,99961.28
2023-04-18T19:50:56.780Z,99956.94
2023-04-18T19:55:51.280Z,99956.66
2023-04-18T19:58:39.647Z,99945.81
2023-04-18T20:01:07.629Z,99957.97
2023-04-18T20:03:34.800Z,99954.59
2023-04-18T20:06:01.659Z,99954.38
2023-04-18T20:08:29.324Z,99952.31
2023-04-18T20:10:56.484Z,99949.47
2023-04-18T20:13:23.287Z,99964.00
2023-04-18T20:15:50.035Z,99956.66
2023-04-18T20:18:17.244Z,99963.63
2023-04-18T20:20:43.935Z,99958.81
2023-04-18T20:23:11.436Z,99966.47
2023-04-18T20:25:38.184Z,99959.84
2023-04-18T20:28:04.959Z,99960.78
2023-04-18T20:30:31.750Z,99964.00
2023-04-18T20:32:58.486Z,99958.06
2023-04-18T20:35:25.266Z,99961.00
2023-04-18T20:37:51.865Z,99967.22
2023-04-18T20:40:18.674Z,99962.34
2023-04-18T20:42:45.347Z,99959.88
2023-04-18T20:45:12.109Z,99956.22
2023-04-18T20:47:43.155Z,99959.63
2023-04-18T20:50:10.986Z,99955.88
2023-04-18T20:52:37.652Z,99954.16
2023-04-18T20:55:04.473Z,99954.84
2023-04-18T20:57:31.251Z,99956.03
2023-04-18T20:59:58.738Z,99959.47
2023-04-18T21:02:26.515Z,99956.38
2023-04-18T21:04:53.466Z,99954.72
2023-04-18T21:07:20.219Z,99959.78
2023-04-18T21:09:46.924Z,99960.66
2023-04-18T21:12:13.662Z,99956.28
2023-04-18T21:14:40.339Z,99948.44
2023-04-18T21:17:07.192Z,99954.59
2023-04-18T21:19:33.784Z,99953.09
2023-04-18T21:22:00.436Z,99953.84
2023-04-18T21:24:27.198Z,99954.72
2023-04-18T21:26:53.880Z,99951.28
2023-04-18T21:29:21.708Z,99951.28
2023-04-18T21:31:50.250Z,99957.25
2023-04-18T21:34:17.108Z,99955.97
2023-04-18T21:36:44.035Z,99951.44
2023-04-18T21:39:10.626Z,99957.75
2023-04-18T21:41:37.268Z,99950.31
2023-04-18T21:44:03.946Z,99940.88
2023-04-18T21:46:30.629Z,99937.09
2023-04-18T21:48:57.234Z,99949.28
2023-04-18T21:51:23.984Z,99940.59
2023-04-18T21:53:50.685Z,99932.50
2023-04-18T21:56:17.412Z,99931.72
2023-04-18T21:58:44.112Z,99931.06
2023-04-18T22:01:10.796Z,99934.28
2023-04-18T22:03:37.880Z,99929.63
2023-04-18T22:06:04.803Z,99926.91
2023-04-18T22:08:31.455Z,99927.84
2023-04-18T22:10:59.002Z,99924.25
2023-04-18T22:13:30.156Z,99925.97
2023-04-18T22:15:58.319Z,99924.06
2023-04-18T22:18:25.296Z,99921.91
2023-04-18T22:20:53.797Z,99911.13
2023-04-18T22:23:20.770Z,99916.34
2023-04-18T22:25:47.830Z,99905.66
2023-04-18T22:28:14.731Z,99911.81
2023-04-18T22:30:41.584Z,99905.66
2023-04-18T22:33:08.233Z,99901.63
2023-04-18T22:35:34.920Z,99900.38
2023-04-18T22:38:01.506Z,99899.16
2023-04-18T22:40:28.093Z,99896.81
2023-04-18T22:42:54.686Z,99903.97
2023-04-18T22:45:21.396Z,99904.72
2023-04-18T22:47:48.124Z,99905.47
2023-04-18T22:50:15.112Z,99905.47
2023-04-18T22:52:41.779Z,99898.47
2023-04-18T22:55:09.267Z,99904.72
2023-04-18T22:57:36.230Z,99895.09
2023-04-18T23:00:05.066Z,99899.16
2023-04-18T23:02:31.836Z,99894.03
2023-04-18T23:04:59.782Z,99896.88
2023-04-18T23:07:26.412Z,99903.59
2023-04-18T23:09:52.990Z,99902.75
2023-04-18T23:12:19.976Z,99901.88
2023-04-18T23:14:46.514Z,99894.81
2023-04-18T23:17:13.152Z,99895.84
2023-04-18T23:19:39.964Z,99894.03
2023-04-18T23:22:06.563Z,99899.16
2023-04-18T23:24:33.171Z,99900.19
2023-04-18T23:26:59.737Z,99896.59
2023-04-18T23:29:26.362Z,99901.03
2023-04-18T23:31:53.105Z,99901.97
2023-04-18T23:34:19.892Z,99900.19
2023-04-18T23:36:46.701Z,99894.72
2023-04-18T23:39:13.353Z,99890.53
2023-04-18T23:41:39.963Z,99893.00
2023-04-18T23:44:06.673Z,99889.44
2023-04-18T23:46:35.079Z,99887.53
2023-04-18T23:49:03.177Z,99889.44
2023-04-18T23:51:29.834Z,99887.91
2023-04-18T23:53:56.543Z,99889.69
2023-04-18T23:56:23.280Z,99889.81
2023-04-18T23:58:50.271Z,99879.03
